Time;durP1;ratioP1;P1;durP2;ratioP2;P2;SDS_P1;SDS_P2;PMS_P1;PMS_P2;Temp;Humidity;BMP_temperature;BMP_pressure;BME280_temperature;BME280_humidity;BME280_pressure;Samples;Min_cycle;Max_cycle;Signal;HPM_P1;HPM_P2
2021/07/10 00:00:08;;;;;;;13.82;7.22;;;;;;;;;;347008;105;2021756;-72
2021/07/10 00:01:13;;;;;;;13.44;7.02;;;;;;;;;;368673;106;1960651;-73
2021/07/10 00:02:18;;;;;;;12.77;6.83;;;;;;;;;;376464;105;1960814;-73
2021/07/10 00:03:23;;;;;;;19.44;7.66;;;;;;;;;;363811;105;1960825;-73
2021/07/10 00:04:28;;;;;;;13.53;6.90;;;;;;;;;;320283;105;2300371;-74
2021/07/10 00:05:34;;;;;;;13.13;6.76;;;;;;;;;;304254;105;2437808;-74
2021/07/10 00:06:45;;;;;;;19.75;7.73;;;;;;;;;;396212;102;1960687;-74
2021/07/10 00:07:50;;;;;;;13.59;8.36;;;;;;;;;;376744;106;1960814;-73
2021/07/10 00:08:55;;;;;;;14.47;8.28;;;;;;;;;;375562;106;1960793;-73
2021/07/10 00:10:08;;;;;;;20.19;9.03;;;;;;;;;;403239;101;1984818;-73
2021/07/10 00:11:13;;;;;;;17.54;8.94;;;;;;;;;;384474;105;1970994;-73
2021/07/10 00:12:18;;;;;;;16.51;9.31;;;;;;;;;;385294;103;1960759;-72
2021/07/10 00:13:23;;;;;;;16.84;9.01;;;;;;;;;;385788;103;1960737;-73
2021/07/10 00:14:29;;;;;;;17.43;9.41;;;;;;;;;;386966;103;1960836;-72
2021/07/10 00:15:34;;;;;;;15.58;8.93;;;;;;;;;;387193;103;1960834;-73
2021/07/10 00:16:39;;;;;;;15.77;9.18;;;;;;;;;;386909;103;1960658;-73
2021/07/10 00:17:45;;;;;;;17.29;8.74;;;;;;;;;;389085;103;1960795;-72
2021/07/10 00:18:49;;;;;;;14.02;8.51;;;;;;;;;;386034;103;1960744;-72
2021/07/10 00:19:54;;;;;;;18.02;9.79;;;;;;;;;;357888;103;2015829;-72
2021/07/10 00:21:00;;;;;;;12.72;8.49;;;;;;;;;;322813;103;2326791;-71
2021/07/10 00:22:06;;;;;;;17.27;8.36;;;;;;;;;;317323;103;2463781;-73
2021/07/10 00:23:11;;;;;;;17.14;9.30;;;;;;;;;;335339;103;2213828;-72
2021/07/10 00:24:16;;;;;;;14.27;8.61;;;;;;;;;;353187;103;2629721;-73
2021/07/10 00:25:28;;;;;;;17.40;9.93;;;;;;;;;;395628;99;2072712;-72
2021/07/10 00:26:35;;;;;;;18.94;9.28;;;;;;;;;;381022;103;1960767;-73
2021/07/10 00:27:40;;;;;;;15.96;8.61;;;;;;;;;;379389;105;1960805;-72
2021/07/10 00:28:52;;;;;;;14.47;8.76;;;;;;;;;;393318;104;2070942;-73
2021/07/10 00:29:58;;;;;;;17.29;8.65;;;;;;;;;;375319;107;1962086;-72
2021/07/10 00:31:03;;;;;;;13.55;8.77;;;;;;;;;;374731;105;1963982;-71
2021/07/10 00:32:09;;;;;;;15.57;8.70;;;;;;;;;;373200;107;1961972;-73
2021/07/10 00:33:14;;;;;;;18.98;9.14;;;;;;;;;;372048;106;1964085;-72
2021/07/10 00:34:19;;;;;;;13.96;8.97;;;;;;;;;;367935;107;1963081;-71
2021/07/10 00:35:25;;;;;;;15.13;8.92;;;;;;;;;;368674;107;1961942;-72
2021/07/10 00:36:30;;;;;;;13.18;8.42;;;;;;;;;;367901;107;1963838;-73
2021/07/10 00:37:36;;;;;;;17.68;9.04;;;;;;;;;;364337;108;1961924;-71
2021/07/10 00:38:41;;;;;;;18.04;8.92;;;;;;;;;;364383;110;1962951;-73
2021/07/10 00:39:47;;;;;;;18.03;9.10;;;;;;;;;;369302;108;1960889;-73
2021/07/10 00:40:53;;;;;;;15.26;9.84;;;;;;;;;;290823;109;2455817;-74
2021/07/10 00:41:59;;;;;;;12.47;8.46;;;;;;;;;;305593;110;2306815;-73
2021/07/10 00:43:04;;;;;;;13.99;8.48;;;;;;;;;;302249;107;2463881;-73
2021/07/10 00:44:15;;;;;;;17.00;9.07;;;;;;;;;;391447;104;2070908;-73
2021/07/10 00:45:20;;;;;;;16.67;9.02;;;;;;;;;;377819;106;1960777;-72
2021/07/10 00:46:27;;;;;;;15.91;9.51;;;;;;;;;;369813;108;1960868;-72
2021/07/10 00:47:32;;;;;;;13.53;9.07;;;;;;;;;;364588;110;1960841;-73
2021/07/10 00:48:37;;;;;;;12.87;8.11;;;;;;;;;;368861;108;1960839;-72
2021/07/10 00:49:42;;;;;;;15.26;8.87;;;;;;;;;;362355;108;1960784;-73
2021/07/10 00:50:49;;;;;;;15.96;8.67;;;;;;;;;;370925;108;1961782;-73
2021/07/10 00:51:54;;;;;;;14.64;8.75;;;;;;;;;;369710;108;1962004;-73
2021/07/10 00:52:59;;;;;;;12.06;8.10;;;;;;;;;;369699;108;1963913;-72
2021/07/10 00:54:04;;;;;;;12.13;8.49;;;;;;;;;;351367;110;1963011;-73
2021/07/10 00:55:10;;;;;;;14.95;8.95;;;;;;;;;;320411;108;2192923;-72
2021/07/10 00:56:16;;;;;;;13.93;8.92;;;;;;;;;;370616;108;1963044;-72
2021/07/10 00:57:21;;;;;;;14.77;8.41;;;;;;;;;;369634;108;1962040;-74
2021/07/10 00:58:28;;;;;;;13.53;8.66;;;;;;;;;;369943;108;1961965;-74
2021/07/10 00:59:33;;;;;;;12.49;8.64;;;;;;;;;;370560;108;1962000;-73
2021/07/10 01:00:40;;;;;;;16.49;8.90;;;;;;;;;;371003;108;1960780;-73
2021/07/10 01:01:52;;;;;;;14.39;8.00;;;;;;;;;;385119;101;1985982;-72
2021/07/10 01:02:57;;;;;;;14.73;8.26;;;;;;;;;;356397;104;1972017;-73
2021/07/10 01:04:03;;;;;;;11.97;7.92;;;;;;;;;;360507;106;1960900;-72
2021/07/10 01:05:10;;;;;;;11.94;7.96;;;;;;;;;;335788;105;2162843;-73
2021/07/10 01:06:16;;;;;;;13.62;8.25;;;;;;;;;;378973;105;1962036;-73
2021/07/10 01:07:21;;;;;;;16.64;8.61;;;;;;;;;;378091;105;1962906;-72
2021/07/10 01:08:27;;;;;;;14.78;8.83;;;;;;;;;;378965;106;1962978;-73
2021/07/10 01:09:32;;;;;;;15.10;8.21;;;;;;;;;;378593;106;1961851;-74
2021/07/10 01:10:39;;;;;;;16.78;8.52;;;;;;;;;;379397;105;1962027;-73
2021/07/10 01:11:45;;;;;;;14.29;8.26;;;;;;;;;;378813;105;1963879;-72
2021/07/10 01:12:52;;;;;;;12.78;8.08;;;;;;;;;;378535;105;1961888;-73
2021/07/10 01:13:57;;;;;;;15.62;7.98;;;;;;;;;;373217;106;1961856;-72
2021/07/10 01:15:03;;;;;;;12.56;7.71;;;;;;;;;;365390;105;1961987;-72
2021/07/10 01:16:09;;;;;;;12.07;7.77;;;;;;;;;;378802;106;1962026;-72
2021/07/10 01:17:14;;;;;;;13.00;7.81;;;;;;;;;;378373;105;1960975;-73
2021/07/10 01:18:19;;;;;;;16.06;8.42;;;;;;;;;;377813;105;1962027;-70
2021/07/10 01:19:27;;;;;;;14.04;7.24;;;;;;;;;;361430;105;1964010;-73
2021/07/10 01:20:33;;;;;;;12.94;8.34;;;;;;;;;;377664;106;1962002;-73
2021/07/10 01:21:39;;;;;;;12.48;7.39;;;;;;;;;;379135;105;1961980;-73
2021/07/10 01:22:45;;;;;;;16.42;8.40;;;;;;;;;;370318;107;1962856;-72
2021/07/10 01:23:51;;;;;;;12.57;8.35;;;;;;;;;;325525;105;2225950;-71
2021/07/10 01:25:03;;;;;;;16.37;8.12;;;;;;;;;;394684;103;2071064;-72
2021/07/10 01:26:09;;;;;;;13.79;8.11;;;;;;;;;;369698;108;1961998;-72
2021/07/10 01:27:14;;;;;;;13.67;7.55;;;;;;;;;;380895;105;1963972;-72
2021/07/10 01:28:26;;;;;;;12.78;7.19;;;;;;;;;;385825;106;1986807;-72
2021/07/10 01:29:32;;;;;;;13.56;7.57;;;;;;;;;;370262;108;1968923;-73
2021/07/10 01:30:40;;;;;;;12.39;7.06;;;;;;;;;;371465;108;1962009;-73
2021/07/10 01:31:46;;;;;;;11.81;7.71;;;;;;;;;;369595;108;1963027;-72
2021/07/10 01:32:52;;;;;;;12.98;8.30;;;;;;;;;;369951;108;1964072;-72
2021/07/10 01:34:00;;;;;;;18.71;8.07;;;;;;;;;;369385;108;1961897;-72
2021/07/10 01:35:06;;;;;;;13.28;7.14;;;;;;;;;;314047;108;2271046;-72
2021/07/10 01:36:12;;;;;;;10.76;7.99;;;;;;;;;;371383;108;1963091;-73
2021/07/10 01:37:17;;;;;;;11.81;7.83;;;;;;;;;;369543;108;1962938;-73
2021/07/10 01:38:22;;;;;;;13.14;7.69;;;;;;;;;;373377;108;1961953;-72
2021/07/10 01:39:27;;;;;;;14.00;7.97;;;;;;;;;;361161;111;1960835;-72
2021/07/10 01:40:33;;;;;;;12.82;7.83;;;;;;;;;;370951;108;1961975;-74
2021/07/10 01:41:40;;;;;;;11.09;7.78;;;;;;;;;;373189;108;1961916;-73
2021/07/10 01:42:45;;;;;;;14.43;7.73;;;;;;;;;;370910;108;1963003;-74
2021/07/10 01:43:50;;;;;;;13.94;7.50;;;;;;;;;;370431;108;1960988;-74
2021/07/10 01:44:55;;;;;;;11.33;7.53;;;;;;;;;;371183;108;1961977;-74
2021/07/10 01:46:00;;;;;;;13.13;7.97;;;;;;;;;;370530;108;1964965;-73
2021/07/10 01:47:05;;;;;;;14.79;8.35;;;;;;;;;;372828;108;1961963;-73
2021/07/10 01:48:10;;;;;;;13.96;7.68;;;;;;;;;;361042;108;1961827;-72
2021/07/10 01:49:28;;;;;;;14.57;8.23;;;;;;;;;;393590;104;1987035;-72
2021/07/10 01:50:33;;;;;;;13.39;7.35;;;;;;;;;;374344;106;1970756;-73
2021/07/10 01:51:46;;;;;;;15.19;7.89;;;;;;;;;;360672;106;2005903;-73
2021/07/10 01:52:52;;;;;;;14.10;8.38;;;;;;;;;;294305;109;2420818;-74
2021/07/10 01:53:57;;;;;;;10.88;7.45;;;;;;;;;;347652;112;1963937;-72
2021/07/10 01:55:03;;;;;;;12.01;7.71;;;;;;;;;;321299;112;2070970;-72
2021/07/10 01:56:34;;;;;;;14.65;8.06;;;;;;;;;;402931;101;1986894;-72
2021/07/10 01:57:39;;;;;;;13.11;7.42;;;;;;;;;;383359;104;1973066;-71
2021/07/10 01:58:51;;;;;;;11.56;7.68;;;;;;;;;;386909;106;1985943;-71
2021/07/10 01:59:56;;;;;;;12.73;7.62;;;;;;;;;;359663;110;1969829;-73
2021/07/10 02:01:20;;;;;;;12.26;6.95;;;;;;;;;;327020;108;2747013;-73
2021/07/10 02:02:26;;;;;;;14.20;8.26;;;;;;;;;;369446;108;1962023;-73
2021/07/10 02:03:31;;;;;;;11.61;7.88;;;;;;;;;;351196;107;1961966;-71
2021/07/10 02:04:46;;;;;;;11.32;8.01;;;;;;;;;;322544;107;2164980;-72
2021/07/10 02:05:57;;;;;;;12.40;7.52;;;;;;;;;;394121;104;1985870;-72
2021/07/10 02:07:03;;;;;;;13.53;7.62;;;;;;;;;;376254;106;1962046;-72
2021/07/10 02:08:09;;;;;;;12.46;7.55;;;;;;;;;;374793;106;1961988;-72
2021/07/10 02:09:14;;;;;;;11.64;7.83;;;;;;;;;;372609;107;1962057;-72
2021/07/10 02:10:20;;;;;;;14.01;8.20;;;;;;;;;;370411;108;1962006;-72
2021/07/10 02:11:25;;;;;;;13.27;7.82;;;;;;;;;;368515;108;1962982;-73
2021/07/10 02:12:30;;;;;;;13.86;8.14;;;;;;;;;;368300;107;1961889;-73
2021/07/10 02:13:36;;;;;;;13.89;8.04;;;;;;;;;;359783;108;1962011;-72
2021/07/10 02:14:41;;;;;;;12.36;7.49;;;;;;;;;;371132;107;1962953;-72
2021/07/10 02:15:47;;;;;;;12.15;7.59;;;;;;;;;;370705;108;1962021;-71
2021/07/10 02:16:52;;;;;;;12.38;8.37;;;;;;;;;;371936;107;1961998;-72
2021/07/10 02:17:57;;;;;;;13.43;8.14;;;;;;;;;;364929;109;1962027;-72
2021/07/10 02:19:02;;;;;;;16.86;7.59;;;;;;;;;;369609;107;1962938;-72
2021/07/10 02:20:08;;;;;;;13.36;8.13;;;;;;;;;;371465;108;1962042;-71
2021/07/10 02:21:13;;;;;;;13.50;8.68;;;;;;;;;;363864;111;1962009;-73
2021/07/10 02:22:18;;;;;;;11.89;8.39;;;;;;;;;;370598;107;1962041;-70
2021/07/10 02:23:23;;;;;;;13.13;8.18;;;;;;;;;;369937;109;1962047;-72
2021/07/10 02:24:30;;;;;;;13.58;8.13;;;;;;;;;;367563;107;1961995;-71
2021/07/10 02:25:35;;;;;;;13.46;7.62;;;;;;;;;;367765;108;1962031;-73
2021/07/10 02:26:40;;;;;;;18.69;8.29;;;;;;;;;;368309;107;1960865;-73
2021/07/10 02:27:45;;;;;;;16.37;8.96;;;;;;;;;;370105;107;1960844;-73
2021/07/10 02:28:50;;;;;;;14.88;8.76;;;;;;;;;;357610;107;1962763;-73
2021/07/10 02:29:55;;;;;;;14.30;8.41;;;;;;;;;;326215;109;2131919;-74
2021/07/10 02:31:01;;;;;;;13.33;8.48;;;;;;;;;;307257;108;2330781;-73
2021/07/10 02:32:06;;;;;;;14.17;8.32;;;;;;;;;;316247;108;2253966;-73
2021/07/10 02:33:11;;;;;;;12.97;7.76;;;;;;;;;;350275;107;1961966;-72
2021/07/10 02:34:17;;;;;;;14.33;8.38;;;;;;;;;;310056;107;2302037;-73
2021/07/10 02:35:22;;;;;;;12.68;7.87;;;;;;;;;;305200;107;2362955;-72
2021/07/10 02:36:28;;;;;;;13.06;7.86;;;;;;;;;;344467;110;1962034;-71
2021/07/10 02:37:33;;;;;;;18.91;8.74;;;;;;;;;;315766;107;2235081;-72
2021/07/10 02:38:38;;;;;;;14.54;7.82;;;;;;;;;;308935;107;2303330;-73
2021/07/10 02:39:44;;;;;;;11.29;7.76;;;;;;;;;;298676;108;2415994;-72
2021/07/10 02:40:49;;;;;;;11.81;7.88;;;;;;;;;;317982;107;2231004;-73
2021/07/10 02:41:55;;;;;;;13.11;8.18;;;;;;;;;;331846;107;2551947;-73
2021/07/10 02:43:06;;;;;;;14.36;7.98;;;;;;;;;;386881;104;2071017;-71
2021/07/10 02:44:12;;;;;;;12.87;7.96;;;;;;;;;;371112;107;1961863;-72
2021/07/10 02:45:18;;;;;;;13.24;7.65;;;;;;;;;;367109;107;1963083;-71
2021/07/10 02:46:24;;;;;;;13.80;8.18;;;;;;;;;;361116;109;1961992;-71
2021/07/10 02:47:36;;;;;;;13.91;7.67;;;;;;;;;;393791;104;1986002;-72
2021/07/10 02:48:41;;;;;;;13.84;7.47;;;;;;;;;;370277;108;1968912;-72
2021/07/10 02:49:46;;;;;;;13.90;7.86;;;;;;;;;;361440;109;1962017;-72
2021/07/10 02:50:53;;;;;;;13.30;7.99;;;;;;;;;;313801;107;2274804;-73
2021/07/10 02:51:58;;;;;;;15.64;8.42;;;;;;;;;;300636;107;2403009;-73
2021/07/10 02:53:04;;;;;;;12.45;7.56;;;;;;;;;;325228;105;2527034;-72
2021/07/10 02:54:09;;;;;;;14.49;8.13;;;;;;;;;;353260;107;1960979;-72
2021/07/10 02:55:15;;;;;;;13.94;7.76;;;;;;;;;;312779;107;2279866;-72
2021/07/10 02:56:21;;;;;;;13.79;8.17;;;;;;;;;;371178;107;1961833;-73
2021/07/10 02:57:26;;;;;;;14.08;8.16;;;;;;;;;;367396;107;1960952;-73
2021/07/10 02:58:31;;;;;;;12.32;7.59;;;;;;;;;;342287;107;2018923;-73
2021/07/10 02:59:36;;;;;;;16.14;8.31;;;;;;;;;;339777;108;2029904;-72
2021/07/10 03:00:42;;;;;;;12.43;8.12;;;;;;;;;;348130;107;1961045;-73
2021/07/10 03:01:53;;;;;;;12.38;7.88;;;;;;;;;;394808;104;1985865;-73
2021/07/10 03:02:59;;;;;;;12.50;8.41;;;;;;;;;;373650;105;1966031;-73
2021/07/10 03:04:04;;;;;;;13.29;7.89;;;;;;;;;;370159;107;1961943;-71
2021/07/10 03:05:09;;;;;;;13.16;8.42;;;;;;;;;;361213;107;1962046;-72
2021/07/10 03:06:21;;;;;;;15.72;8.58;;;;;;;;;;395199;103;1985959;-73
2021/07/10 03:07:25;;;;;;;12.83;8.58;;;;;;;;;;374090;107;1966976;-73
2021/07/10 03:08:30;;;;;;;14.69;8.04;;;;;;;;;;382359;106;1961852;-73
2021/07/10 03:09:35;;;;;;;12.39;8.74;;;;;;;;;;369881;106;1962943;-73
2021/07/10 03:10:43;;;;;;;11.41;7.99;;;;;;;;;;380745;106;1961974;-72
2021/07/10 03:11:48;;;;;;;17.18;8.95;;;;;;;;;;379319;106;1962017;-73
2021/07/10 03:12:56;;;;;;;15.11;9.23;;;;;;;;;;377165;106;1962068;-73
2021/07/10 03:14:02;;;;;;;18.18;8.86;;;;;;;;;;322634;106;2255027;-73
2021/07/10 03:15:09;;;;;;;16.39;10.20;;;;;;;;;;346090;108;1976867;-74
2021/07/10 03:16:15;;;;;;;20.96;10.54;;;;;;;;;;374385;107;1963050;-72
2021/07/10 03:17:20;;;;;;;13.18;8.91;;;;;;;;;;378763;106;1962050;-72
2021/07/10 03:18:24;;;;;;;18.62;10.16;;;;;;;;;;377945;106;1961938;-71
2021/07/10 03:19:29;;;;;;;15.08;9.43;;;;;;;;;;377579;106;1962992;-73
2021/07/10 03:20:35;;;;;;;16.04;10.16;;;;;;;;;;378959;106;1961859;-73
2021/07/10 03:21:42;;;;;;;16.66;9.81;;;;;;;;;;377308;106;1962037;-72
2021/07/10 03:22:48;;;;;;;15.56;9.45;;;;;;;;;;377976;106;1963775;-73
2021/07/10 03:23:59;;;;;;;20.51;11.32;;;;;;;;;;393211;103;1961993;-72
2021/07/10 03:25:06;;;;;;;15.79;9.34;;;;;;;;;;374016;107;1962048;-73
2021/07/10 03:26:12;;;;;;;17.24;10.09;;;;;;;;;;374406;106;1962011;-73
2021/07/10 03:27:17;;;;;;;17.52;10.07;;;;;;;;;;367484;107;1963705;-72
2021/07/10 03:28:22;;;;;;;16.07;10.91;;;;;;;;;;355868;107;1961962;-73
2021/07/10 03:29:28;;;;;;;18.71;10.03;;;;;;;;;;330269;108;2119923;-72
2021/07/10 03:30:33;;;;;;;19.07;9.72;;;;;;;;;;336812;108;2066005;-73
2021/07/10 03:31:38;;;;;;;15.39;9.60;;;;;;;;;;347757;108;1961963;-74
2021/07/10 03:32:44;;;;;;;17.70;9.95;;;;;;;;;;319503;108;2231030;-72
2021/07/10 03:33:49;;;;;;;20.24;10.36;;;;;;;;;;340852;108;2019951;-73
2021/07/10 03:34:55;;;;;;;15.71;9.34;;;;;;;;;;296062;108;2437847;-72
2021/07/10 03:36:07;;;;;;;16.72;9.93;;;;;;;;;;380042;106;2073039;-73
2021/07/10 03:37:12;;;;;;;16.98;10.08;;;;;;;;;;365045;109;1965048;-73
2021/07/10 03:38:17;;;;;;;20.10;10.59;;;;;;;;;;366432;108;1962093;-74
2021/07/10 03:39:22;;;;;;;17.17;9.81;;;;;;;;;;363815;110;1963997;-72
2021/07/10 03:40:28;;;;;;;19.64;10.32;;;;;;;;;;363675;110;1964029;-72
2021/07/10 03:41:35;;;;;;;19.55;10.23;;;;;;;;;;364093;110;1963973;-73
2021/07/10 03:42:40;;;;;;;16.66;11.33;;;;;;;;;;363548;110;1962986;-72
2021/07/10 03:43:45;;;;;;;17.84;9.58;;;;;;;;;;363893;110;1962032;-72
2021/07/10 03:44:50;;;;;;;19.74;9.77;;;;;;;;;;362233;110;1964016;-73
2021/07/10 03:46:02;;;;;;;16.49;9.94;;;;;;;;;;394138;104;1987014;-74
2021/07/10 03:47:08;;;;;;;18.51;10.74;;;;;;;;;;375507;105;1969978;-73
2021/07/10 03:48:14;;;;;;;18.08;10.76;;;;;;;;;;373502;105;1961893;-73
2021/07/10 03:49:19;;;;;;;19.94;10.46;;;;;;;;;;370251;107;1962025;-72
2021/07/10 03:50:25;;;;;;;20.56;10.57;;;;;;;;;;369693;107;1961922;-74
2021/07/10 03:51:36;;;;;;;20.23;12.36;;;;;;;;;;363532;104;2066017;-73
2021/07/10 03:52:41;;;;;;;17.06;10.17;;;;;;;;;;314036;107;2481017;-73
2021/07/10 03:53:47;;;;;;;20.32;10.48;;;;;;;;;;310160;111;2501008;-71
2021/07/10 03:54:52;;;;;;;18.54;10.17;;;;;;;;;;301392;108;2457929;-73
2021/07/10 03:55:58;;;;;;;18.87;10.38;;;;;;;;;;309019;107;2337968;-72
2021/07/10 03:57:03;;;;;;;17.22;10.61;;;;;;;;;;316275;109;2233059;-71
2021/07/10 03:58:09;;;;;;;19.57;10.83;;;;;;;;;;300421;109;2384040;-74
2021/07/10 03:59:20;;;;;;;21.64;11.21;;;;;;;;;;376563;108;2074913;-74
2021/07/10 04:00:26;;;;;;;19.56;10.22;;;;;;;;;;361839;111;1962063;-71
2021/07/10 04:01:41;;;;;;;18.70;10.27;;;;;;;;;;397320;103;1986942;-71
2021/07/10 04:02:44;;;;;;;17.43;10.36;;;;;;;;;;374918;105;1963046;-74
2021/07/10 04:04:08;;;;;;;18.89;9.54;;;;;;;;;;362617;109;1961984;-74
2021/07/10 04:05:13;;;;;;;16.47;10.08;;;;;;;;;;362518;109;1961922;-73
2021/07/10 04:06:19;;;;;;;19.37;9.58;;;;;;;;;;366374;109;1961895;-73
2021/07/10 04:07:24;;;;;;;18.02;10.15;;;;;;;;;;361143;109;1962025;-73
2021/07/10 04:08:29;;;;;;;19.39;10.32;;;;;;;;;;362880;109;1962090;-74
2021/07/10 04:09:34;;;;;;;17.23;10.16;;;;;;;;;;361853;109;1962958;-72
2021/07/10 04:10:39;;;;;;;15.90;10.88;;;;;;;;;;365939;109;1961912;-75
2021/07/10 04:11:44;;;;;;;20.54;9.89;;;;;;;;;;363870;109;1962073;-73
2021/07/10 04:12:49;;;;;;;18.48;10.65;;;;;;;;;;340344;111;1961980;-73
2021/07/10 04:13:55;;;;;;;19.28;9.94;;;;;;;;;;293526;110;2443063;-71
2021/07/10 04:15:00;;;;;;;17.30;9.52;;;;;;;;;;336479;111;2006055;-73
2021/07/10 04:16:06;;;;;;;19.02;10.21;;;;;;;;;;344460;110;1961997;-71
2021/07/10 04:17:11;;;;;;;18.45;10.26;;;;;;;;;;301784;109;2339044;-74
2021/07/10 04:18:23;;;;;;;20.13;10.39;;;;;;;;;;392857;104;2081054;-75
2021/07/10 04:19:28;;;;;;;17.47;8.63;;;;;;;;;;378856;105;1961945;-73
2021/07/10 04:20:33;;;;;;;16.79;9.13;;;;;;;;;;381755;105;1961978;-73
2021/07/10 04:21:44;;;;;;;18.82;9.58;;;;;;;;;;395925;104;1985972;-74
2021/07/10 04:22:50;;;;;;;16.41;9.58;;;;;;;;;;373858;107;1969939;-75
2021/07/10 04:23:55;;;;;;;20.14;9.63;;;;;;;;;;380405;106;1961984;-74
2021/07/10 04:25:03;;;;;;;16.33;9.19;;;;;;;;;;378715;106;1961957;-74
2021/07/10 04:26:07;;;;;;;16.99;8.63;;;;;;;;;;379943;106;1961895;-73
2021/07/10 04:27:12;;;;;;;18.87;9.38;;;;;;;;;;377785;106;1961998;-73
2021/07/10 04:28:17;;;;;;;15.82;9.57;;;;;;;;;;379464;106;1961959;-72
2021/07/10 04:29:22;;;;;;;17.07;8.84;;;;;;;;;;377347;106;1962000;-74
2021/07/10 04:30:33;;;;;;;15.15;8.67;;;;;;;;;;391257;104;1986939;-70
2021/07/10 04:31:38;;;;;;;13.95;8.17;;;;;;;;;;374120;107;1966043;-72
2021/07/10 04:32:44;;;;;;;14.48;8.37;;;;;;;;;;371358;106;1962004;-72
2021/07/10 04:33:49;;;;;;;18.24;9.40;;;;;;;;;;367546;107;1961838;-73
2021/07/10 04:34:54;;;;;;;13.56;7.81;;;;;;;;;;369475;107;1963953;-73
2021/07/10 04:35:59;;;;;;;17.94;9.26;;;;;;;;;;372375;107;1962839;-73
2021/07/10 04:37:04;;;;;;;17.32;8.85;;;;;;;;;;350795;107;1961914;-73
2021/07/10 04:38:10;;;;;;;20.33;8.74;;;;;;;;;;316841;107;2284033;-74
2021/07/10 04:39:15;;;;;;;17.08;9.22;;;;;;;;;;302042;107;2488023;-73
2021/07/10 04:40:21;;;;;;;17.20;8.83;;;;;;;;;;354608;107;1965951;-73
2021/07/10 04:41:26;;;;;;;12.81;7.98;;;;;;;;;;321587;107;2224931;-74
2021/07/10 04:42:32;;;;;;;15.06;8.59;;;;;;;;;;305846;107;2372994;-73
2021/07/10 04:43:38;;;;;;;14.97;7.12;;;;;;;;;;340305;107;2010982;-73
2021/07/10 04:44:43;;;;;;;15.28;7.38;;;;;;;;;;341666;109;2033994;-73
2021/07/10 04:45:48;;;;;;;10.82;7.14;;;;;;;;;;339503;107;2066852;-73
2021/07/10 04:46:53;;;;;;;16.36;7.69;;;;;;;;;;327558;107;2207017;-74
2021/07/10 04:48:05;;;;;;;13.56;7.41;;;;;;;;;;401719;101;1987086;-74
2021/07/10 04:49:11;;;;;;;13.26;7.09;;;;;;;;;;382459;105;1969973;-74
2021/07/10 04:50:17;;;;;;;14.15;6.89;;;;;;;;;;379142;105;1962061;-73
2021/07/10 04:51:22;;;;;;;13.89;7.28;;;;;;;;;;379328;105;1962803;-74
2021/07/10 04:52:28;;;;;;;12.19;6.93;;;;;;;;;;379367;105;1962000;-74
2021/07/10 04:53:33;;;;;;;15.61;6.79;;;;;;;;;;375531;106;1961962;-73
2021/07/10 04:54:38;;;;;;;12.69;7.62;;;;;;;;;;379456;105;1962061;-74
2021/07/10 04:55:49;;;;;;;14.98;7.23;;;;;;;;;;394970;104;1985948;-72
2021/07/10 04:56:54;;;;;;;11.96;6.94;;;;;;;;;;378094;106;1969078;-72
2021/07/10 04:58:00;;;;;;;13.99;7.19;;;;;;;;;;375031;106;1961794;-73
2021/07/10 04:59:04;;;;;;;13.55;7.12;;;;;;;;;;368529;108;1961970;-74
2021/07/10 05:00:11;;;;;;;12.09;6.17;;;;;;;;;;373703;108;1961925;-74
2021/07/10 05:01:16;;;;;;;12.60;6.78;;;;;;;;;;368067;108;1963009;-75
2021/07/10 05:02:21;;;;;;;13.94;7.24;;;;;;;;;;371697;108;1962016;-72
2021/07/10 05:03:33;;;;;;;15.85;7.83;;;;;;;;;;400158;101;1985872;-74
2021/07/10 05:04:38;;;;;;;11.46;6.28;;;;;;;;;;381303;105;1970054;-75
2021/07/10 05:05:43;;;;;;;12.86;6.50;;;;;;;;;;381682;105;1961944;-74
2021/07/10 05:06:50;;;;;;;13.75;6.23;;;;;;;;;;382419;105;1960662;-74
2021/07/10 05:07:54;;;;;;;12.70;7.03;;;;;;;;;;379166;105;1961955;-72
2021/07/10 05:08:59;;;;;;;16.06;7.40;;;;;;;;;;386134;105;1960764;-74
2021/07/10 05:10:05;;;;;;;13.43;7.75;;;;;;;;;;386506;105;1960897;-74
2021/07/10 05:11:11;;;;;;;10.95;6.24;;;;;;;;;;385363;105;1960761;-73
2021/07/10 05:12:18;;;;;;;13.78;7.01;;;;;;;;;;382763;105;1961060;-73
2021/07/10 05:13:22;;;;;;;12.97;7.03;;;;;;;;;;382875;105;1960837;-73
2021/07/10 05:14:35;;;;;;;12.46;7.12;;;;;;;;;;397781;104;1986007;-73
2021/07/10 05:15:40;;;;;;;12.08;6.80;;;;;;;;;;379753;107;1967715;-72
2021/07/10 05:16:47;;;;;;;12.66;5.77;;;;;;;;;;364152;105;2833987;-73
2021/07/10 05:17:52;;;;;;;9.41;5.59;;;;;;;;;;303345;105;2479894;-76
2021/07/10 05:18:58;;;;;;;12.93;7.19;;;;;;;;;;325913;105;2608030;-74
2021/07/10 05:20:05;;;;;;;12.99;6.54;;;;;;;;;;330899;106;2205968;-73
2021/07/10 05:21:10;;;;;;;13.53;6.24;;;;;;;;;;376870;105;1963058;-74
2021/07/10 05:22:21;;;;;;;10.81;6.14;;;;;;;;;;396605;104;1986052;-75
2021/07/10 05:23:26;;;;;;;10.16;5.24;;;;;;;;;;377164;106;1968987;-75
2021/07/10 05:24:31;;;;;;;9.96;6.33;;;;;;;;;;377610;106;1962048;-74
2021/07/10 05:25:37;;;;;;;9.96;5.39;;;;;;;;;;382906;106;1962067;-74
2021/07/10 05:26:42;;;;;;;12.50;5.76;;;;;;;;;;377274;106;1961961;-74
2021/07/10 05:27:47;;;;;;;10.55;5.59;;;;;;;;;;376821;106;1961906;-75
2021/07/10 05:28:52;;;;;;;12.71;6.86;;;;;;;;;;341152;106;2103921;-73
2021/07/10 05:29:58;;;;;;;10.76;5.63;;;;;;;;;;312391;106;2388965;-73
2021/07/10 05:31:09;;;;;;;10.19;6.14;;;;;;;;;;391826;104;2071067;-74
2021/07/10 05:32:15;;;;;;;12.90;7.79;;;;;;;;;;375562;107;1962913;-72
2021/07/10 05:33:21;;;;;;;11.56;6.63;;;;;;;;;;374129;106;1962070;-73
2021/07/10 05:34:26;;;;;;;13.41;6.84;;;;;;;;;;370016;108;1961996;-73
2021/07/10 05:35:31;;;;;;;11.12;6.56;;;;;;;;;;371251;108;1961948;-73
2021/07/10 05:36:38;;;;;;;10.78;5.56;;;;;;;;;;381374;106;1962041;-73
2021/07/10 05:37:43;;;;;;;11.02;5.31;;;;;;;;;;371876;106;1962059;-73
2021/07/10 05:38:48;;;;;;;10.26;5.71;;;;;;;;;;369230;108;1961998;-72
2021/07/10 05:40:00;;;;;;;11.72;6.00;;;;;;;;;;395500;103;1985932;-73
2021/07/10 05:41:04;;;;;;;11.82;5.41;;;;;;;;;;376833;107;1969026;-73
2021/07/10 05:42:16;;;;;;;10.97;5.41;;;;;;;;;;386302;106;1986958;-73
2021/07/10 05:43:24;;;;;;;10.50;5.48;;;;;;;;;;366941;109;1969068;-74
2021/07/10 05:44:48;;;;;;;13.49;6.56;;;;;;;;;;364356;109;1963019;-74
2021/07/10 05:46:00;;;;;;;9.94;5.90;;;;;;;;;;365953;103;2073057;-74
2021/07/10 05:47:06;;;;;;;11.12;6.56;;;;;;;;;;312546;107;2536954;-74
2021/07/10 05:48:11;;;;;;;13.68;6.21;;;;;;;;;;300626;108;2434072;-73
2021/07/10 05:49:23;;;;;;;12.34;5.67;;;;;;;;;;388404;104;2070995;-75
2021/07/10 05:50:28;;;;;;;14.43;5.60;;;;;;;;;;375857;107;1963072;-74
2021/07/10 05:51:33;;;;;;;15.26;7.39;;;;;;;;;;376124;107;1961959;-75
2021/07/10 05:52:39;;;;;;;9.92;5.88;;;;;;;;;;353044;107;1962071;-73
2021/07/10 05:53:44;;;;;;;13.34;6.06;;;;;;;;;;358254;108;1962039;-74
2021/07/10 05:54:49;;;;;;;11.79;5.61;;;;;;;;;;316287;107;2267972;-73
2021/07/10 05:55:55;;;;;;;10.39;5.63;;;;;;;;;;322235;108;2677981;-74
2021/07/10 05:57:02;;;;;;;11.92;6.26;;;;;;;;;;365835;108;1962078;-73
2021/07/10 05:58:07;;;;;;;10.73;5.87;;;;;;;;;;366452;108;1964937;-73
2021/07/10 05:59:12;;;;;;;15.03;5.44;;;;;;;;;;361710;108;1962043;-74
2021/07/10 06:00:17;;;;;;;12.02;5.28;;;;;;;;;;335703;108;2102956;-74
2021/07/10 06:01:30;;;;;;;9.35;5.49;;;;;;;;;;399469;104;1986959;-74
2021/07/10 06:02:35;;;;;;;11.27;4.81;;;;;;;;;;379935;105;1968850;-74
2021/07/10 06:03:40;;;;;;;12.93;5.63;;;;;;;;;;377570;107;1962006;-75
2021/07/10 06:04:52;;;;;;;9.32;4.73;;;;;;;;;;380126;108;1986003;-73
2021/07/10 06:05:57;;;;;;;11.34;5.34;;;;;;;;;;356857;112;1972010;-72
2021/07/10 06:07:03;;;;;;;10.02;4.87;;;;;;;;;;355995;111;1963927;-73
2021/07/10 06:08:08;;;;;;;10.53;5.41;;;;;;;;;;350779;115;1961929;-74
2021/07/10 06:09:13;;;;;;;10.79;4.93;;;;;;;;;;351522;114;1962987;-73
2021/07/10 06:10:21;;;;;;;11.36;5.10;;;;;;;;;;349665;116;1962058;-74
2021/07/10 06:11:26;;;;;;;12.01;5.03;;;;;;;;;;349494;115;1962003;-73
2021/07/10 06:12:32;;;;;;;9.62;5.37;;;;;;;;;;350032;114;1962046;-74
2021/07/10 06:13:38;;;;;;;10.24;5.72;;;;;;;;;;351625;114;1963048;-73
2021/07/10 06:14:43;;;;;;;9.94;4.67;;;;;;;;;;349554;113;1964870;-73
2021/07/10 06:15:49;;;;;;;10.50;5.13;;;;;;;;;;355775;113;1962052;-74
2021/07/10 06:17:01;;;;;;;9.72;5.22;;;;;;;;;;347591;103;2302036;-74
2021/07/10 06:18:06;;;;;;;11.42;5.75;;;;;;;;;;357502;106;1969908;-73
2021/07/10 06:19:18;;;;;;;10.29;4.83;;;;;;;;;;396308;104;1986993;-73
2021/07/10 06:20:24;;;;;;;7.85;4.69;;;;;;;;;;380850;105;1970002;-75